createdAt,value
2022-10-24T00:00:12.215Z,19.005
2022-10-24T00:01:12.466Z,19.005
2022-10-24T00:02:11.779Z,19.015
2022-10-24T00:03:12.167Z,19.02
2022-10-24T00:04:12.540Z,19.015
2022-10-24T00:05:12.096Z,18.98
2022-10-24T00:06:12.192Z,18.97
2022-10-24T00:07:12.545Z,18.92
2022-10-24T00:08:12.216Z,18.9
2022-10-24T00:09:12.029Z,18.895
2022-10-24T00:10:12.006Z,18.94
2022-10-24T00:11:11.833Z,18.915
2022-10-24T00:12:11.846Z,18.92
2022-10-24T00:13:12.748Z,18.915
2022-10-24T00:14:12.350Z,18.945
2022-10-24T00:15:12.011Z,18.92
2022-10-24T00:16:12.914Z,18.894
2022-10-24T00:17:11.976Z,18.89
2022-10-24T00:18:11.938Z,18.885
2022-10-24T00:19:12.968Z,18.855
2022-10-24T00:20:11.477Z,18.813
2022-10-24T00:21:12.341Z,18.75
2022-10-24T00:22:12.117Z,18.73
2022-10-24T00:23:12.229Z,18.72
2022-10-24T00:24:12.834Z,18.755
2022-10-24T00:25:12.933Z,18.765
2022-10-24T00:26:12.182Z,18.755
2022-10-24T00:27:14.529Z,18.725
2022-10-24T00:28:11.411Z,18.74
2022-10-24T00:29:12.078Z,18.745
2022-10-24T00:30:13.865Z,18.74
2022-10-24T00:31:12.806Z,18.71
2022-10-24T00:32:11.477Z,18.705
2022-10-24T00:33:12.946Z,18.694
2022-10-24T00:34:11.926Z,18.6258
2022-10-24T00:35:11.826Z,18.671
2022-10-24T00:36:12.582Z,18.694
2022-10-24T00:37:12.156Z,18.705
2022-10-24T00:38:15.694Z,18.75
2022-10-24T00:39:13.768Z,18.7227
2022-10-24T00:40:11.508Z,18.71
2022-10-24T00:41:11.330Z,18.7
2022-10-24T00:42:12.766Z,18.6891
2022-10-24T00:43:12.106Z,18.745
2022-10-24T00:44:12.340Z,18.75
2022-10-24T00:45:12.461Z,18.75
2022-10-24T00:46:11.264Z,18.735
2022-10-24T00:47:11.465Z,18.765
2022-10-24T00:48:11.489Z,18.785
2022-10-24T00:49:11.542Z,18.805
2022-10-24T00:50:11.569Z,18.8108
2022-10-24T00:51:11.731Z,18.79
2022-10-24T00:52:10.636Z,18.816
2022-10-24T00:53:11.622Z,18.805
2022-10-24T00:54:11.737Z,18.765
2022-10-24T00:55:12.572Z,18.79
2022-10-24T00:56:11.906Z,18.75
2022-10-24T00:57:11.467Z,18.739
2022-10-24T00:58:10.950Z,18.775
2022-10-24T00:59:11.803Z,18.759
2022-10-24T01:00:10.796Z,18.76
2022-10-24T01:01:12.103Z,18.7453
2022-10-24T01:02:11.292Z,18.75
2022-10-24T01:03:11.033Z,18.7827
2022-10-24T01:04:11.340Z,18.782
2022-10-24T01:05:11.152Z,18.817
2022-10-24T01:06:11.174Z,18.8158
2022-10-24T01:07:12.349Z,18.786
2022-10-24T01:08:11.511Z,18.75
2022-10-24T01:09:10.857Z,18.78
2022-10-24T01:10:11.766Z,18.755
2022-10-24T01:11:11.898Z,18.77
2022-10-24T01:12:10.568Z,18.81
2022-10-24T01:13:12.489Z,18.806
2022-10-24T01:14:10.676Z,18.81
2022-10-24T01:15:11.524Z,18.839
2022-10-24T01:16:11.506Z,18.839
2022-10-24T01:17:11.484Z,18.833
2022-10-24T01:18:10.604Z,18.862
2022-10-24T01:19:11.124Z,18.828
2022-10-24T01:20:11.355Z,18.79
2022-10-24T01:21:10.690Z,18.785
2022-10-24T01:22:11.885Z,18.78
2022-10-24T01:23:12.537Z,18.805
2022-10-24T01:24:12.115Z,18.8
2022-10-24T01:25:12.113Z,18.775
2022-10-24T01:26:10.409Z,18.765
2022-10-24T01:27:11.694Z,18.79
2022-10-24T01:28:11.393Z,18.827
2022-10-24T01:29:11.397Z,18.845
2022-10-24T01:30:11.683Z,18.822
2022-10-24T01:31:11.402Z,18.827
2022-10-24T01:32:11.027Z,18.8216
2022-10-24T01:33:12.160Z,18.816
2022-10-24T01:34:11.304Z,18.8216
2022-10-24T01:35:11.404Z,18.805
2022-10-24T01:36:11.465Z,18.8
2022-10-24T01:37:11.454Z,18.805
2022-10-24T01:38:11.054Z,18.79
2022-10-24T01:39:11.257Z,18.8
2022-10-24T01:40:11.559Z,18.765
2022-10-24T01:41:11.262Z,18.755
2022-10-24T01:42:11.950Z,18.704
2022-10-24T01:43:11.466Z,18.683
2022-10-24T01:44:11.021Z,18.69
2022-10-24T01:45:11.712Z,18.71
2022-10-24T01:46:11.311Z,18.676
2022-10-24T01:47:10.897Z,18.671
2022-10-24T01:48:16.069Z,18.668
2022-10-24T01:49:11.489Z,18.64
2022-10-24T01:50:11.167Z,18.6783
2022-10-24T01:51:11.260Z,18.666
2022-10-24T01:53:11.184Z,18.655
2022-10-24T01:54:11.350Z,18.626
2022-10-24T01:55:11.848Z,18.655
2022-10-24T01:56:10.965Z,18.672
2022-10-24T01:57:11.578Z,18.672
2022-10-24T01:58:11.337Z,18.627
2022-10-24T01:59:11.941Z,18.6783
2022-10-24T02:00:11.331Z,18.655
2022-10-24T02:01:11.153Z,18.672
2022-10-24T02:02:11.655Z,18.705
2022-10-24T02:03:11.551Z,18.73
2022-10-24T02:04:10.599Z,18.765
2022-10-24T02:05:12.729Z,18.8
2022-10-24T02:06:13.310Z,18.816
2022-10-24T02:07:11.729Z,18.8158
2022-10-24T02:08:11.323Z,18.795
2022-10-24T02:09:11.449Z,18.833
2022-10-24T02:10:11.705Z,18.8
2022-10-24T02:11:11.464Z,18.755
2022-10-24T02:12:11.310Z,18.735
2022-10-24T02:13:11.497Z,18.75
2022-10-24T02:14:11.324Z,18.79
2022-10-24T02:15:11.856Z,18.775
2022-10-24T02:16:11.690Z,18.8
2022-10-24T02:17:11.536Z,18.8108
2022-10-24T02:18:10.880Z,18.835
2022-10-24T02:19:11.377Z,18.842
2022-10-24T02:20:11.476Z,18.856
2022-10-24T02:21:12.499Z,18.8683
2022-10-24T02:22:11.134Z,18.86
2022-10-24T02:23:10.956Z,18.9
2022-10-24T02:24:11.573Z,18.888
2022-10-24T02:25:11.508Z,18.8672
2022-10-24T02:26:12.543Z,18.863
2022-10-24T02:27:11.209Z,18.854
2022-10-24T02:28:11.504Z,18.839
2022-10-24T02:29:12.488Z,18.878
2022-10-24T02:30:10.832Z,18.8909
2022-10-24T02:31:11.735Z,18.905
2022-10-24T02:32:11.846Z,18.9261
2022-10-24T02:33:11.827Z,18.8909
2022-10-24T02:35:12.049Z,18.89
2022-10-24T02:36:12.099Z,18.93
2022-10-24T02:37:11.668Z,18.955
2022-10-24T02:38:11.500Z,18.97
2022-10-24T02:39:11.678Z,18.995
2022-10-24T02:40:12.621Z,18.99
2022-10-24T02:41:11.450Z,18.995
2022-10-24T02:42:12.114Z,19.02
2022-10-24T02:43:11.661Z,19.025
2022-10-24T02:44:12.205Z,19.06
2022-10-24T02:45:11.751Z,19.055
2022-10-24T02:46:11.528Z,19.09
2022-10-24T02:47:12.060Z,19.1316
2022-10-24T02:48:11.767Z,19.155
2022-10-24T02:49:11.655Z,19.1891
2022-10-24T02:50:12.435Z,19.22
2022-10-24T02:51:11.835Z,19.225
2022-10-24T02:52:12.524Z,19.235
2022-10-24T02:53:12.249Z,19.24
2022-10-24T02:54:11.834Z,19.215
2022-10-24T02:55:12.413Z,19.25
2022-10-24T02:56:12.129Z,19.265
2022-10-24T02:57:12.540Z,19.245
2022-10-24T02:58:12.158Z,19.25
2022-10-24T02:59:12.289Z,19.255
2022-10-24T03:00:11.945Z,19.28
2022-10-24T03:01:12.623Z,19.28
2022-10-24T03:02:11.916Z,19.305
2022-10-24T03:03:12.078Z,19.305
2022-10-24T03:04:12.921Z,19.29
2022-10-24T03:05:12.212Z,19.305
2022-10-24T03:06:12.411Z,19.322
2022-10-24T03:07:12.645Z,19.305
2022-10-24T03:08:12.324Z,19.311
2022-10-24T03:09:12.444Z,19.3158
2022-10-24T03:10:12.494Z,19.28
2022-10-24T03:11:12.810Z,19.27
2022-10-24T03:12:11.718Z,19.3
2022-10-24T03:13:12.912Z,19.305
2022-10-24T03:14:11.951Z,19.3158
2022-10-24T03:15:12.436Z,19.29
2022-10-24T03:16:14.021Z,19.275
2022-10-24T03:17:12.448Z,19.28
2022-10-24T03:18:15.991Z,19.27
2022-10-24T03:19:12.627Z,19.26
2022-10-24T03:20:12.471Z,19.245
2022-10-24T03:21:12.133Z,19.25
2022-10-24T03:22:12.500Z,19.27
2022-10-24T03:23:12.306Z,19.28
2022-10-24T03:24:11.814Z,19.25
2022-10-24T03:25:12.969Z,19.245
2022-10-24T03:26:12.051Z,19.27
2022-10-24T03:27:12.153Z,19.316
2022-10-24T03:28:12.349Z,19.3158
2022-10-24T03:29:11.844Z,19.327
2022-10-24T03:30:12.775Z,19.3
2022-10-24T03:31:12.224Z,19.3
2022-10-24T03:32:12.254Z,19.3108
2022-10-24T03:33:12.699Z,19.316
2022-10-24T03:34:11.147Z,19.29
2022-10-24T03:35:14.281Z,19.275
2022-10-24T03:36:16.703Z,19.255
2022-10-24T03:37:11.881Z,19.285
2022-10-24T03:38:12.633Z,19.3216
2022-10-24T03:39:12.319Z,19.367
2022-10-24T03:40:11.942Z,19.3854
2022-10-24T03:41:12.306Z,19.38
2022-10-24T03:42:11.899Z,19.322
2022-10-24T03:43:12.157Z,19.329
2022-10-24T03:44:12.462Z,19.316
2022-10-24T03:45:12.117Z,19.335
2022-10-24T03:46:12.476Z,19.321
2022-10-24T03:47:12.301Z,19.327
2022-10-24T03:48:12.153Z,19.341
2022-10-24T03:49:13.077Z,19.316
2022-10-24T03:50:12.479Z,19.3216
2022-10-24T03:51:11.698Z,19.354
2022-10-24T03:52:12.381Z,19.353
2022-10-24T03:53:12.250Z,19.3854
2022-10-24T03:54:11.230Z,19.42
2022-10-24T03:55:12.853Z,19.405
2022-10-24T03:56:11.936Z,19.333
2022-10-24T03:57:11.811Z,19.316
2022-10-24T03:58:12.525Z,19.356
2022-10-24T03:59:11.830Z,19.367
2022-10-24T04:00:11.595Z,19.345
2022-10-24T04:01:11.976Z,19.305
2022-10-24T04:02:11.633Z,19.295
2022-10-24T04:03:11.539Z,19.29
2022-10-24T04:04:12.150Z,19.265
2022-10-24T04:05:11.751Z,19.265
2022-10-24T04:06:11.455Z,19.235
2022-10-24T04:07:11.966Z,19.21
2022-10-24T04:08:12.177Z,19.204
2022-10-24T04:09:11.612Z,19.204
2022-10-24T04:10:12.271Z,19.205
2022-10-24T04:11:11.445Z,19.198
2022-10-24T04:12:11.490Z,19.172
2022-10-24T04:13:12.103Z,19.115
2022-10-24T04:14:11.767Z,19.11
2022-10-24T04:15:10.575Z,19.11
2022-10-24T04:16:12.177Z,19.126
2022-10-24T04:17:11.679Z,19.065
2022-10-24T04:18:12.277Z,19.09
2022-10-24T04:19:12.086Z,19.111
2022-10-24T04:20:11.944Z,19.138
2022-10-24T04:21:12.196Z,19.105
2022-10-24T04:22:11.915Z,19.115
2022-10-24T04:23:11.281Z,19.105
2022-10-24T04:24:12.418Z,19.09
2022-10-24T04:25:11.614Z,19.1
2022-10-24T04:26:11.560Z,19.085
2022-10-24T04:27:12.161Z,19.035
2022-10-24T04:28:11.065Z,19.07
2022-10-24T04:29:10.423Z,19.1258
2022-10-24T04:30:16.389Z,19.1
2022-10-24T04:31:11.745Z,19.095
2022-10-24T04:32:11.931Z,19.09
2022-10-24T04:33:12.185Z,19.16
2022-10-24T04:34:11.809Z,19.195
2022-10-24T04:35:10.589Z,19.195
2022-10-24T04:36:11.416Z,19.225
2022-10-24T04:37:11.565Z,19.22
2022-10-24T04:38:11.072Z,19.21
2022-10-24T04:39:11.534Z,19.195
2022-10-24T04:40:11.372Z,19.1891
2022-10-24T04:41:12.226Z,19.205
2022-10-24T04:42:11.747Z,19.24
2022-10-24T04:43:17.427Z,19.25
2022-10-24T04:44:10.356Z,19.225
2022-10-24T04:45:11.865Z,19.235
2022-10-24T04:46:10.898Z,19.265
2022-10-24T04:47:12.105Z,19.26
2022-10-24T04:48:11.448Z,19.26
2022-10-24T04:49:11.286Z,19.255
2022-10-24T04:50:11.782Z,19.255
2022-10-24T04:51:11.183Z,19.225
2022-10-24T04:52:11.329Z,19.235
2022-10-24T04:53:11.560Z,19.235
2022-10-24T04:54:11.030Z,19.235
2022-10-24T04:55:10.994Z,19.22
2022-10-24T04:56:11.530Z,19.235
2022-10-24T04:57:11.357Z,19.225
2022-10-24T04:58:11.063Z,19.23
2022-10-24T04:59:11.338Z,19.23
2022-10-24T05:00:11.397Z,19.26
2022-10-24T05:01:11.108Z,19.26
2022-10-24T05:02:11.834Z,19.255
2022-10-24T05:03:11.221Z,19.25
2022-10-24T05:04:10.273Z,19.25
2022-10-24T05:05:11.081Z,19.24
2022-10-24T05:06:10.923Z,19.187
2022-10-24T05:07:10.976Z,19.176
2022-10-24T05:08:11.486Z,19.168
2022-10-24T05:09:11.428Z,19.177
2022-10-24T05:10:10.079Z,19.189
2022-10-24T05:11:10.930Z,19.1316
2022-10-24T05:12:11.669Z,19.1061
2022-10-24T05:13:11.290Z,19.1327
2022-10-24T05:14:11.341Z,19.12
2022-10-24T05:15:11.422Z,19.143
2022-10-24T05:16:11.114Z,19.137
2022-10-24T05:17:11.786Z,19.166
2022-10-24T05:18:11.365Z,19.154
2022-10-24T05:19:10.664Z,19.149
2022-10-24T05:20:12.083Z,19.1316
2022-10-24T05:21:10.987Z,19.1
2022-10-24T05:22:11.342Z,19.065
2022-10-24T05:23:11.095Z,19.04
2022-10-24T05:24:11.109Z,19.035
2022-10-24T05:25:11.500Z,19.065
2022-10-24T05:26:11.904Z,19.03
2022-10-24T05:27:11.491Z,19.01
2022-10-24T05:28:11.261Z,19.03
2022-10-24T05:29:11.111Z,19.015
2022-10-24T05:30:11.234Z,19
2022-10-24T05:31:09.986Z,19.035
2022-10-24T05:32:10.686Z,19.015
2022-10-24T05:33:10.762Z,18.975
2022-10-24T05:34:10.703Z,18.965
2022-10-24T05:35:11.893Z,19.01
2022-10-24T05:36:11.010Z,19.02
2022-10-24T05:37:11.311Z,19.01
2022-10-24T05:38:15.073Z,19.01
2022-10-24T05:39:11.117Z,18.995
2022-10-24T05:40:10.636Z,19
2022-10-24T05:41:11.634Z,19.03
2022-10-24T05:42:10.879Z,19.045
2022-10-24T05:43:11.786Z,19.06
2022-10-24T05:44:11.660Z,19.05
2022-10-24T05:45:11.624Z,19.095
2022-10-24T05:46:11.233Z,19.095
2022-10-24T05:47:11.669Z,19.075
2022-10-24T05:48:10.897Z,19.11
2022-10-24T05:49:11.980Z,19.115
2022-10-24T05:50:12.009Z,19.11
2022-10-24T05:51:11.352Z,19.11
2022-10-24T05:52:11.280Z,19.1
2022-10-24T05:53:11.617Z,19.085
2022-10-24T05:55:14.439Z,19.132
2022-10-24T05:56:11.417Z,19.137
2022-10-24T05:57:12.179Z,19.149
2022-10-24T05:58:10.602Z,19.183
2022-10-24T05:59:13.065Z,19.225
2022-10-24T06:00:14.768Z,19.2084
2022-10-24T06:01:11.685Z,19.2118
2022-10-24T06:02:11.703Z,19.1891
2022-10-24T06:03:11.638Z,19.235
2022-10-24T06:04:13.749Z,19.24
2022-10-24T06:05:11.746Z,19.26
2022-10-24T06:06:11.783Z,19.25
2022-10-24T06:07:12.078Z,19.265
2022-10-24T06:08:11.698Z,19.265
2022-10-24T06:09:12.269Z,19.27
2022-10-24T06:10:12.332Z,19.3
2022-10-24T06:11:12.608Z,19.311
2022-10-24T06:12:11.346Z,19.28
2022-10-24T06:13:12.411Z,19.285
2022-10-24T06:14:12.338Z,19.31
2022-10-24T06:15:12.461Z,19.345
2022-10-24T06:16:12.059Z,19.35
2022-10-24T06:17:12.571Z,19.327
2022-10-24T06:18:12.332Z,19.3791
2022-10-24T06:19:12.654Z,19.42
2022-10-24T06:20:11.724Z,19.384
2022-10-24T06:21:11.883Z,19.367
2022-10-24T06:22:12.451Z,19.378
2022-10-24T06:23:12.409Z,19.3791
2022-10-24T06:24:11.421Z,19.394
2022-10-24T06:25:12.489Z,19.389
2022-10-24T06:26:12.427Z,19.3791
2022-10-24T06:27:12.218Z,19.3854
2022-10-24T06:28:12.945Z,19.383
2022-10-24T06:29:12.510Z,19.367
2022-10-24T06:30:12.092Z,19.4236
2022-10-24T06:31:12.418Z,19.44
2022-10-24T06:32:11.694Z,19.4509
2022-10-24T06:33:12.785Z,19.4584
2022-10-24T06:34:12.459Z,19.4563
2022-10-24T06:35:12.298Z,19.435
2022-10-24T06:36:12.545Z,19.42
2022-10-24T06:37:12.395Z,19.44
2022-10-24T06:38:13.993Z,19.472
2022-10-24T06:39:12.216Z,19.494
2022-10-24T06:40:12.471Z,19.48
2022-10-24T06:41:12.176Z,19.505
2022-10-24T06:42:12.784Z,19.505
2022-10-24T06:43:12.727Z,19.51
2022-10-24T06:44:12.348Z,19.51
2022-10-24T06:45:12.386Z,19.55
2022-10-24T06:46:11.915Z,19.555
2022-10-24T06:47:12.937Z,19.555
2022-10-24T06:48:12.046Z,19.535
2022-10-24T06:49:12.186Z,19.565
2022-10-24T06:50:12.135Z,19.59
2022-10-24T06:51:12.129Z,19.6
2022-10-24T06:52:12.933Z,19.6208
2022-10-24T06:53:12.481Z,19.61
2022-10-24T06:54:12.984Z,19.6316
2022-10-24T06:55:16.963Z,19.6841
2022-10-24T06:56:12.190Z,19.6841
2022-10-24T06:57:11.199Z,19.694
2022-10-24T06:58:12.291Z,19.687
2022-10-24T06:59:12.294Z,19.71
2022-10-24T07:00:12.682Z,19.765
2022-10-24T07:01:12.329Z,19.78
2022-10-24T07:02:12.093Z,19.805
2022-10-24T07:03:12.621Z,19.8216
2022-10-24T07:04:12.467Z,19.845
2022-10-24T07:05:12.186Z,19.85
2022-10-24T07:06:12.680Z,19.845
2022-10-24T07:07:12.284Z,19.827
2022-10-24T07:08:12.051Z,19.867
2022-10-24T07:09:15.165Z,19.8791
2022-10-24T07:10:12.343Z,19.878
2022-10-24T07:11:11.912Z,19.873
2022-10-24T07:12:12.189Z,19.905
2022-10-24T07:13:12.429Z,19.905
2022-10-24T07:14:11.638Z,19.89
2022-10-24T07:15:12.581Z,19.8683
2022-10-24T07:16:12.271Z,19.8791
2022-10-24T07:17:12.597Z,19.8791
2022-10-24T07:18:17.192Z,19.8692
2022-10-24T07:19:12.042Z,19.841
2022-10-24T07:20:12.704Z,19.878
2022-10-24T07:21:12.075Z,19.884
2022-10-24T07:22:13.986Z,19.862
2022-10-24T07:23:12.456Z,19.8741
2022-10-24T07:24:11.779Z,19.9
2022-10-24T07:25:12.877Z,19.925
2022-10-24T07:26:11.892Z,19.935
2022-10-24T07:27:11.459Z,19.945
2022-10-24T07:28:12.658Z,19.96
2022-10-24T07:29:12.388Z,19.98
2022-10-24T07:30:12.041Z,20
2022-10-24T07:31:11.770Z,20.02
2022-10-24T07:32:12.008Z,20.04
2022-10-24T07:33:11.709Z,20.09
2022-10-24T07:34:12.116Z,20.1258
2022-10-24T07:35:11.888Z,20.143
2022-10-24T07:36:11.545Z,20.1841
2022-10-24T07:37:12.303Z,20.245
2022-10-24T07:38:15.247Z,20.24
2022-10-24T07:39:17.773Z,20.25
2022-10-24T07:40:11.866Z,20.26
2022-10-24T07:41:11.341Z,20.295
2022-10-24T07:42:12.153Z,20.29
2022-10-24T07:43:11.959Z,20.305
2022-10-24T07:44:11.589Z,20.316
2022-10-24T07:45:11.755Z,20.339
2022-10-24T07:46:12.085Z,20.35
2022-10-24T07:47:11.252Z,20.361
2022-10-24T07:48:11.958Z,20.385
2022-10-24T07:49:11.445Z,20.3791
2022-10-24T07:50:11.575Z,20.383
2022-10-24T07:51:11.499Z,20.345
2022-10-24T07:52:11.411Z,20.35
2022-10-24T07:53:11.382Z,20.3854
2022-10-24T07:54:12.232Z,20.388
2022-10-24T07:55:11.867Z,20.3854
2022-10-24T07:56:11.203Z,20.395
2022-10-24T07:57:11.628Z,20.43
2022-10-24T07:58:11.329Z,20.42
2022-10-24T07:59:29.856Z,20.415
2022-10-24T08:00:11.649Z,20.425
2022-10-24T08:01:11.347Z,20.425
2022-10-24T08:02:10.893Z,20.445
2022-10-24T08:03:11.505Z,20.47
2022-10-24T08:04:11.656Z,20.485
2022-10-24T08:05:12.018Z,20.43
2022-10-24T08:06:11.617Z,20.46
2022-10-24T08:07:11.195Z,20.49
2022-10-24T08:08:27.612Z,20.485
2022-10-24T08:09:11.552Z,20.475
2022-10-24T08:10:11.836Z,20.455
2022-10-24T08:11:11.703Z,20.44
2022-10-24T08:12:11.313Z,20.465
2022-10-24T08:13:13.588Z,20.47
2022-10-24T08:14:11.778Z,20.485
2022-10-24T08:15:11.428Z,20.505
2022-10-24T08:16:11.896Z,20.5
2022-10-24T08:17:11.271Z,20.55
2022-10-24T08:18:11.478Z,20.575
2022-10-24T08:19:12.094Z,20.58
2022-10-24T08:20:11.311Z,20.649
2022-10-24T08:21:11.622Z,20.649
2022-10-24T08:22:11.401Z,20.694
2022-10-24T08:23:16.009Z,20.777
2022-10-24T08:24:12.157Z,20.835
2022-10-24T08:25:11.360Z,20.845
2022-10-24T08:26:11.731Z,20.925
2022-10-24T08:27:11.593Z,20.955
2022-10-24T08:28:10.982Z,20.99
2022-10-24T08:29:12.217Z,21.065
2022-10-24T08:30:11.037Z,21.105
2022-10-24T08:31:11.245Z,21.166
2022-10-24T08:32:11.912Z,21.19
2022-10-24T08:33:14.748Z,21.235
2022-10-24T08:34:11.155Z,21.27
2022-10-24T08:35:11.694Z,21.28
2022-10-24T08:36:11.398Z,21.301
2022-10-24T08:37:12.063Z,21.295
2022-10-24T08:38:11.669Z,21.3
2022-10-24T08:39:11.476Z,21.333
2022-10-24T08:40:11.775Z,21.3216
2022-10-24T08:41:11.717Z,21.345
2022-10-24T08:42:11.102Z,21.3683
2022-10-24T08:43:12.078Z,21.39
2022-10-24T08:44:11.955Z,21.42
2022-10-24T08:45:11.446Z,21.475
2022-10-24T08:46:11.914Z,21.5
2022-10-24T08:47:11.779Z,21.505
2022-10-24T08:48:11.338Z,21.53
2022-10-24T08:49:11.817Z,21.53
2022-10-24T08:50:11.834Z,21.54
2022-10-24T08:51:11.357Z,21.585
2022-10-24T08:52:11.935Z,21.57
2022-10-24T08:53:11.890Z,21.595
2022-10-24T08:54:11.749Z,21.595
2022-10-24T08:55:25.252Z,21.637
2022-10-24T08:56:11.975Z,21.639
2022-10-24T08:57:11.422Z,21.6783
2022-10-24T08:58:12.148Z,21.74
2022-10-24T08:59:11.719Z,21.795
2022-10-24T09:00:12.139Z,21.85
2022-10-24T09:01:11.968Z,21.89
2022-10-24T09:02:13.735Z,21.925
2022-10-24T09:03:12.124Z,21.995
2022-10-24T09:04:11.831Z,22.005
2022-10-24T09:05:12.368Z,22.04
2022-10-24T09:06:12.225Z,22.065
2022-10-24T09:07:12.073Z,22.09
2022-10-24T09:08:11.879Z,22.12
2022-10-24T09:09:15.870Z,22.143
2022-10-24T09:10:11.753Z,22.166
2022-10-24T09:11:11.656Z,22.181
2022-10-24T09:12:12.468Z,22.1892
2022-10-24T09:13:12.081Z,22.195
2022-10-24T09:14:12.518Z,22.21
2022-10-24T09:15:12.218Z,22.25
2022-10-24T09:16:12.171Z,22.33
2022-10-24T09:17:12.573Z,22.378
2022-10-24T09:18:12.445Z,22.429
2022-10-24T09:19:12.267Z,22.4
2022-10-24T09:20:12.624Z,22.4215
2022-10-24T09:21:12.241Z,22.44
2022-10-24T09:22:12.871Z,22.48
2022-10-24T09:23:13.006Z,22.527
2022-10-24T09:24:11.959Z,22.5436
2022-10-24T09:25:14.233Z,22.555
2022-10-24T09:26:12.548Z,22.5872
2022-10-24T09:27:12.510Z,22.615
2022-10-24T09:28:12.781Z,22.672
2022-10-24T09:29:12.323Z,22.688
2022-10-24T09:30:12.032Z,22.715
2022-10-24T09:31:12.617Z,22.682
2022-10-24T09:32:12.622Z,22.69
2022-10-24T09:33:12.270Z,22.72
2022-10-24T09:34:15.962Z,22.717
2022-10-24T09:35:12.459Z,22.7227
2022-10-24T09:36:12.415Z,22.725
2022-10-24T09:37:12.681Z,22.76
2022-10-24T09:38:12.651Z,22.77
2022-10-24T09:39:12.451Z,22.775
2022-10-24T09:40:12.472Z,22.755
2022-10-24T09:41:12.554Z,22.755
2022-10-24T09:42:12.722Z,22.77
2022-10-24T09:43:12.436Z,22.785
2022-10-24T09:44:12.699Z,22.795
2022-10-24T09:45:12.011Z,22.827
2022-10-24T09:46:16.046Z,22.863
2022-10-24T09:47:12.747Z,22.88
2022-10-24T09:48:12.160Z,22.925
2022-10-24T09:49:12.635Z,22.975
2022-10-24T09:50:12.058Z,22.965
2022-10-24T09:51:13.037Z,23.02
2022-10-24T09:52:12.681Z,23.045
2022-10-24T09:53:12.661Z,23.065
2022-10-24T09:54:12.329Z,23.085
2022-10-24T09:55:12.817Z,23.09
2022-10-24T09:56:12.421Z,23.1
2022-10-24T09:57:12.488Z,23.1208
2022-10-24T09:58:12.748Z,23.199
2022-10-24T09:59:12.317Z,23.24
2022-10-24T10:00:13.167Z,23.26
2022-10-24T10:01:12.904Z,23.26
2022-10-24T10:02:12.674Z,23.3
2022-10-24T10:03:12.261Z,23.333
2022-10-24T10:04:14.170Z,23.35
2022-10-24T10:05:12.058Z,23.3741
2022-10-24T10:06:12.741Z,23.42
2022-10-24T10:07:12.547Z,23.47
2022-10-24T10:08:11.524Z,23.525
2022-10-24T10:09:12.792Z,23.585
2022-10-24T10:10:12.539Z,23.56
2022-10-24T10:11:12.282Z,23.55
2022-10-24T10:12:12.466Z,23.565
2022-10-24T10:13:12.496Z,23.59
2022-10-24T10:14:12.463Z,23.62
2022-10-24T10:15:12.806Z,23.6208
2022-10-24T10:16:15.827Z,23.666
2022-10-24T10:17:12.191Z,23.69
2022-10-24T10:18:13.855Z,23.74
2022-10-24T10:19:12.259Z,23.755
2022-10-24T10:20:15.984Z,23.775
2022-10-24T10:21:12.612Z,23.8158
2022-10-24T10:22:12.126Z,23.8216
2022-10-24T10:23:13.094Z,23.8
2022-10-24T10:24:16.827Z,23.79
2022-10-24T10:25:12.477Z,23.795
2022-10-24T10:26:13.033Z,23.862
2022-10-24T10:27:12.437Z,23.884
2022-10-24T10:28:12.084Z,23.861
2022-10-24T10:29:12.410Z,23.873
2022-10-24T10:30:12.359Z,23.92
2022-10-24T10:31:11.788Z,23.935
2022-10-24T10:32:14.181Z,23.975
2022-10-24T10:33:12.374Z,24.04
2022-10-24T10:34:11.578Z,24.0381
2022-10-24T10:35:12.436Z,24.083
2022-10-24T10:36:12.420Z,24.12
2022-10-24T10:37:12.418Z,24.1036
2022-10-24T10:38:11.949Z,24.126
2022-10-24T10:39:12.333Z,24.1258
2022-10-24T10:40:11.703Z,24.1263
2022-10-24T10:41:12.459Z,24.146
2022-10-24T10:42:12.530Z,24.17
2022-10-24T10:43:11.681Z,24.1841
2022-10-24T10:44:12.129Z,24.205
2022-10-24T10:45:11.568Z,24.23
2022-10-24T10:46:11.755Z,24.22
2022-10-24T10:47:12.212Z,24.21
2022-10-24T10:48:11.775Z,24.1841
2022-10-24T10:49:11.330Z,24.183
2022-10-24T10:50:12.340Z,24.1783
2022-10-24T10:51:12.022Z,24.143
2022-10-24T10:52:11.623Z,24.09
2022-10-24T10:53:11.963Z,24.01
2022-10-24T10:54:11.446Z,24.005
2022-10-24T10:55:17.038Z,23.98
2022-10-24T10:56:11.681Z,23.96
2022-10-24T10:57:11.792Z,23.95
2022-10-24T10:58:13.260Z,23.945
2022-10-24T10:59:11.366Z,23.955
2022-10-24T11:00:11.173Z,23.965
2022-10-24T11:01:13.635Z,23.955
2022-10-24T11:02:23.981Z,23.985
2022-10-24T11:03:16.059Z,24.027
2022-10-24T11:04:11.602Z,24.122
2022-10-24T11:05:11.587Z,24.194
2022-10-24T11:06:11.565Z,24.195
2022-10-24T11:07:11.319Z,24.194
2022-10-24T11:08:13.792Z,24.1891
2022-10-24T11:09:12.122Z,24.22
2022-10-24T11:10:11.666Z,24.205
2022-10-24T11:11:11.631Z,24.1841
2022-10-24T11:12:12.292Z,24.128
2022-10-24T11:13:11.926Z,24.1
2022-10-24T11:14:11.241Z,24.1258
2022-10-24T11:15:12.024Z,24.143
2022-10-24T11:16:12.979Z,24.188
2022-10-24T11:17:11.316Z,24.215
2022-10-24T11:18:11.977Z,24.255
2022-10-24T11:19:11.746Z,24.29
2022-10-24T11:20:12.142Z,24.327
2022-10-24T11:21:11.832Z,24.4
2022-10-24T11:22:11.701Z,24.43
2022-10-24T11:23:11.248Z,24.465
2022-10-24T11:24:13.508Z,24.47
2022-10-24T11:25:11.436Z,24.485
2022-10-24T11:26:11.301Z,24.565
2022-10-24T11:27:12.060Z,24.637
2022-10-24T11:28:11.552Z,24.71
2022-10-24T11:29:11.512Z,24.735
2022-10-24T11:30:11.559Z,24.76
2022-10-24T11:31:11.455Z,24.8216
2022-10-24T11:32:11.247Z,24.827
2022-10-24T11:33:11.730Z,24.845
2022-10-24T11:34:11.657Z,24.84
2022-10-24T11:35:12.112Z,24.8
2022-10-24T11:36:11.803Z,24.785
2022-10-24T11:37:11.258Z,24.79
2022-10-24T11:38:11.131Z,24.75
2022-10-24T11:39:11.584Z,24.73
2022-10-24T11:40:11.183Z,24.76
2022-10-24T11:41:11.957Z,24.735
2022-10-24T11:42:11.872Z,24.745
2022-10-24T11:43:10.753Z,24.715
2022-10-24T11:44:11.960Z,24.735
2022-10-24T11:45:11.323Z,24.78
2022-10-24T11:46:11.715Z,24.8
2022-10-24T11:47:11.847Z,24.8
2022-10-24T11:48:11.232Z,24.805
2022-10-24T11:49:12.269Z,24.845
2022-10-24T11:50:11.577Z,24.872
2022-10-24T11:51:11.872Z,24.905
2022-10-24T11:52:11.716Z,24.935
2022-10-24T11:53:11.777Z,24.94
2022-10-24T11:54:12.061Z,24.935
2022-10-24T11:55:11.610Z,24.9454
2022-10-24T11:56:11.863Z,24.9584
2022-10-24T11:58:11.650Z,25.065
2022-10-24T11:59:11.804Z,25.146
2022-10-24T12:00:11.846Z,25.249
2022-10-24T12:01:11.709Z,25.305
2022-10-24T12:02:12.417Z,25.3107
2022-10-24T12:03:12.205Z,25.348
2022-10-24T12:04:11.931Z,25.3741
2022-10-24T12:05:14.559Z,25.3984
2022-10-24T12:06:11.989Z,25.4563
2022-10-24T12:07:11.693Z,25.5
2022-10-24T12:08:12.624Z,25.513
2022-10-24T12:09:12.353Z,25.5218
2022-10-24T12:10:11.827Z,25.545
2022-10-24T12:11:15.912Z,25.592
2022-10-24T12:12:12.263Z,25.61
2022-10-24T12:13:11.897Z,25.632
2022-10-24T12:14:12.492Z,25.643
2022-10-24T12:15:12.353Z,25.6258
2022-10-24T12:16:11.890Z,25.615
2022-10-24T12:17:12.257Z,25.627
2022-10-24T12:18:12.248Z,25.595
2022-10-24T12:19:12.228Z,25.59
2022-10-24T12:20:12.358Z,25.535
2022-10-24T12:21:12.646Z,25.505
2022-10-24T12:22:12.514Z,25.46
2022-10-24T12:23:12.619Z,25.44
2022-10-24T12:24:11.951Z,25.425
2022-10-24T12:25:12.088Z,25.42
2022-10-24T12:26:13.176Z,25.405
2022-10-24T12:27:12.639Z,25.44
2022-10-24T12:28:12.797Z,25.49
2022-10-24T12:29:12.348Z,25.515
2022-10-24T12:30:12.594Z,25.54
2022-10-24T12:31:12.351Z,25.57
2022-10-24T12:32:12.737Z,25.58
2022-10-24T12:33:12.505Z,25.545
2022-10-24T12:34:12.740Z,25.48
2022-10-24T12:35:29.422Z,25.46
2022-10-24T12:36:12.117Z,25.445
2022-10-24T12:37:12.753Z,25.405
2022-10-24T12:38:12.653Z,25.355
2022-10-24T12:39:12.506Z,25.295